Time;durP1;ratioP1;P1;durP2;ratioP2;P2;SDS_P1;SDS_P2;PMS_P1;PMS_P2;Temp;Humidity;BMP_temperature;BMP_pressure;BME280_temperature;BME280_humidity;BME280_pressure;Samples;Min_cycle;Max_cycle;Signal;HPM_P1;HPM_P2
2023/08/09 04:02:04;;;;;;;0.60;0.40;;;15.90;1.00;;;;;;5217077;23;20502;-74
2023/08/09 04:04:32;;;;;;;0.60;0.20;;;15.80;1.00;;;;;;4960548;28;20549;-75
2023/08/09 04:07:00;;;;;;;0.60;0.20;;;15.90;1.00;;;;;;4969159;28;20516;-75
2023/08/09 04:09:29;;;;;;;0.80;0.47;;;16.00;1.00;;;;;;4955758;28;20811;-75
2023/08/09 04:11:57;;;;;;;0.60;0.20;;;15.90;1.00;;;;;;4956301;28;20576;-75
2023/08/09 04:14:25;;;;;;;1.27;0.50;;;;;;;;;;4958465;28;20528;-75
2023/08/09 04:16:53;;;;;;;0.80;0.20;;;16.00;1.00;;;;;;4956791;28;20448;-75
2023/08/09 04:19:23;;;;;;;6.87;0.73;;;16.00;1.00;;;;;;4956935;28;20458;-75
2023/08/09 04:21:51;;;;;;;0.70;0.30;;;16.10;1.00;;;;;;4957160;28;20476;-74
2023/08/09 04:24:19;;;;;;;0.60;0.20;;;16.00;1.00;;;;;;4963726;28;20494;-74
2023/08/09 04:26:47;;;;;;;0.70;0.30;;;16.00;1.00;;;;;;4957460;29;20556;-75
2023/08/09 04:29:15;;;;;;;1.17;0.83;;;16.00;1.00;;;;;;4965946;29;20493;-75
2023/08/09 04:31:44;;;;;;;0.60;0.30;;;;;;;;;;4954101;28;20518;-75
2023/08/09 04:34:13;;;;;;;0.60;0.20;;;16.10;1.00;;;;;;4957907;28;20486;-75
2023/08/09 04:36:42;;;;;;;0.60;0.30;;;16.20;1.00;;;;;;4967162;28;20534;-75
2023/08/09 04:39:10;;;;;;;0.80;0.63;;;16.20;1.00;;;;;;4968614;28;20560;-75
2023/08/09 04:41:38;;;;;;;0.73;0.47;;;16.20;1.00;;;;;;4956752;28;20566;-75
2023/08/09 04:44:06;;;;;;;0.70;0.37;;;;;;;;;;4952605;28;21102;-75
2023/08/09 04:46:35;;;;;;;0.60;0.23;;;16.20;1.00;;;;;;4957236;28;20462;-75
2023/08/09 04:49:03;;;;;;;0.60;0.10;;;16.30;1.00;;;;;;4965749;28;20910;-71
2023/08/09 04:51:32;;;;;;;0.60;0.10;;;16.20;1.00;;;;;;4961196;28;20529;-76
2023/08/09 04:54:01;;;;;;;0.60;0.10;;;16.20;1.00;;;;;;4955999;28;20529;-76
2023/08/09 04:56:29;;;;;;;0.60;0.20;;;12.50;1.00;;;;;;4956079;28;20455;-77
2023/08/09 04:58:56;;;;;;;1.60;0.97;;;16.30;1.00;;;;;;4956422;28;20540;-76
2023/08/09 05:01:25;;;;;;;1.10;0.37;;;;;;;;;;4956473;28;20475;-77
2023/08/09 05:03:53;;;;;;;0.60;0.20;;;16.30;1.00;;;;;;4956088;28;20522;-77
2023/08/09 05:06:22;;;;;;;1.13;0.23;;;16.30;1.00;;;;;;4956019;28;20457;-77
2023/08/09 05:08:50;;;;;;;0.60;0.20;;;16.30;1.00;;;;;;4955755;29;20654;-77
2023/08/09 05:11:19;;;;;;;0.70;0.30;;;16.40;1.00;;;;;;4956050;28;20553;-77
2023/08/09 05:13:47;;;;;;;0.60;0.10;;;16.40;1.00;;;;;;4959686;28;20509;-77
2023/08/09 05:16:14;;;;;;;0.60;0.10;;;16.40;1.00;;;;;;4964089;28;20464;-78
2023/08/09 05:18:42;;;;;;;0.60;0.30;;;16.50;1.00;;;;;;4956098;29;20449;-77
2023/08/09 05:21:10;;;;;;;0.60;0.10;;;16.50;1.00;;;;;;4955483;28;20463;-77
2023/08/09 05:23:38;;;;;;;1.27;0.97;;;16.40;1.00;;;;;;4956008;28;20942;-76
2023/08/09 05:26:06;;;;;;;1.33;0.60;;;16.40;1.00;;;;;;4969013;28;20456;-77
2023/08/09 05:28:35;;;;;;;1.13;1.03;;;16.40;1.00;;;;;;4974572;28;20444;-76
2023/08/09 05:31:03;;;;;;;0.60;0.10;;;;;;;;;;4966527;28;20664;-77
2023/08/09 05:33:31;;;;;;;1.10;0.73;;;16.40;1.00;;;;;;4958758;28;20454;-77
2023/08/09 05:35:59;;;;;;;0.70;0.60;;;16.40;1.00;;;;;;4964713;28;20541;-76
2023/08/09 05:38:27;;;;;;;0.60;0.10;;;16.30;1.00;;;;;;4955684;28;20462;-76
2023/08/09 05:40:56;;;;;;;0.60;0.10;;;16.40;1.00;;;;;;4953171;28;20489;-76
2023/08/09 05:43:24;;;;;;;1.73;1.27;;;15.50;1.00;;;;;;4954164;28;20509;-76
2023/08/09 05:45:53;;;;;;;0.67;0.47;;;16.50;1.00;;;;;;4954684;28;20819;-77
2023/08/09 05:48:22;;;;;;;0.60;0.10;;;16.50;1.00;;;;;;4955094;28;20447;-77
2023/08/09 05:50:50;;;;;;;0.93;0.30;;;16.60;1.00;;;;;;4955871;28;20504;-77
2023/08/09 05:53:19;;;;;;;0.60;0.20;;;16.60;1.00;;;;;;4956525;28;21040;-77
2023/08/09 05:55:47;;;;;;;0.70;0.40;;;16.70;1.00;;;;;;4961436;28;20497;-77
2023/08/09 05:58:15;;;;;;;0.60;0.33;;;16.60;1.00;;;;;;4954222;28;21002;-74
2023/08/09 06:00:43;;;;;;;0.60;0.27;;;16.60;1.00;;;;;;4953976;29;20986;-76
2023/08/09 06:03:12;;;;;;;1.30;1.20;;;16.60;1.00;;;;;;4956386;28;20535;-76
2023/08/09 06:05:40;;;;;;;0.60;0.10;;;16.50;1.00;;;;;;4971456;28;20543;-76
2023/08/09 06:08:08;;;;;;;1.40;0.77;;;16.60;1.00;;;;;;4974521;28;20537;-75
2023/08/09 06:10:37;;;;;;;0.60;0.30;;;;;;;;;;4974061;28;20465;-75
2023/08/09 06:13:05;;;;;;;0.90;0.80;;;16.60;1.00;;;;;;4974143;28;20503;-74
2023/08/09 06:15:33;;;;;;;0.60;0.20;;;16.50;1.00;;;;;;4973472;28;20446;-74
2023/08/09 06:18:00;;;;;;;0.77;0.30;;;16.50;1.00;;;;;;4972071;28;20493;-75
2023/08/09 06:20:30;;;;;;;1.80;1.50;;;16.60;1.00;;;;;;4973364;28;20450;-75
2023/08/09 06:22:58;;;;;;;0.60;0.10;;;16.60;1.00;;;;;;4971681;28;20521;-75
2023/08/09 06:25:26;;;;;;;0.60;0.30;;;16.70;1.00;;;;;;4969614;28;20489;-77
2023/08/09 06:27:54;;;;;;;0.70;0.30;;;16.70;1.00;;;;;;4948279;28;20560;-76
2023/08/09 06:30:22;;;;;;;0.90;0.30;;;16.70;1.00;;;;;;4953553;28;20453;-76
2023/08/09 06:32:50;;;;;;;0.60;0.27;;;16.70;1.00;;;;;;4953267;28;20447;-74
2023/08/09 06:35:18;;;;;;;0.60;0.20;;;16.70;1.00;;;;;;4954620;28;20452;-74
2023/08/09 06:37:48;;;;;;;0.60;0.10;;;16.70;1.00;;;;;;4953700;28;20935;-73
2023/08/09 06:40:22;;;;;;;0.60;0.20;;;16.80;1.00;;;;;;4953743;28;20444;-74
2023/08/09 06:42:50;;;;;;;5.60;1.40;;;16.70;1.00;;;;;;4953259;28;20486;-73
2023/08/09 06:45:18;;;;;;;0.60;0.10;;;16.60;1.00;;;;;;4953454;28;20486;-73
2023/08/09 06:47:46;;;;;;;0.60;0.20;;;16.50;1.00;;;;;;4956279;28;20450;-75
2023/08/09 06:50:14;;;;;;;0.60;0.10;;;16.40;1.00;;;;;;4952812;28;20454;-76
2023/08/09 06:52:42;;;;;;;0.60;0.10;;;16.30;1.00;;;;;;4952346;28;20463;-73
2023/08/09 06:55:11;;;;;;;0.60;0.10;;;16.20;1.00;;;;;;4951082;29;20482;-76
2023/08/09 06:57:39;;;;;;;0.60;0.10;;;16.10;1.00;;;;;;4948507;28;20954;-75
2023/08/09 07:00:15;;;;;;;0.60;0.13;;;16.10;1.00;;;;;;4954143;28;20518;-74
2023/08/09 07:02:45;;;;;;;0.60;0.10;;;16.10;1.00;;;;;;4960378;28;20986;-75
2023/08/09 07:05:18;;;;;;;0.60;0.10;;;;;;;;;;4967074;28;20483;-74
2023/08/09 07:07:48;;;;;;;0.60;0.10;;;16.10;1.00;;;;;;4951474;28;20467;-75
2023/08/09 07:10:18;;;;;;;0.60;0.10;;;;;;;;;;4955994;28;20455;-75
2023/08/09 07:12:45;;;;;;;0.60;0.20;;;16.20;1.00;;;;;;4950902;28;20888;-76
2023/08/09 07:15:13;;;;;;;0.60;0.17;;;16.20;1.00;;;;;;4952843;28;20538;-76
2023/08/09 07:17:42;;;;;;;0.60;0.10;;;16.20;1.00;;;;;;4953406;28;20447;-75
2023/08/09 07:20:11;;;;;;;0.60;0.10;;;16.30;1.00;;;;;;4952523;28;20447;-75
2023/08/09 07:22:39;;;;;;;0.60;0.10;;;16.40;1.00;;;;;;4957082;28;20449;-77
2023/08/09 07:25:09;;;;;;;0.60;0.10;;;16.40;1.00;;;;;;4953846;28;20486;-76
2023/08/09 07:27:43;;;;;;;0.60;0.10;;;16.40;1.00;;;;;;4954379;28;20529;-77
2023/08/09 07:30:12;;;;;;;0.60;0.10;;;;;;;;;;4954106;28;20443;-76
2023/08/09 07:32:40;;;;;;;0.60;0.10;;;16.40;1.00;;;;;;4951668;28;20442;-73
2023/08/09 07:35:09;;;;;;;0.60;0.10;;;16.40;1.00;;;;;;4952628;28;20453;-75
2023/08/09 07:37:40;;;;;;;0.60;0.10;;;16.40;1.00;;;;;;4942327;29;20455;-75
2023/08/09 07:40:09;;;;;;;0.60;0.10;;;16.40;1.00;;;;;;4951659;28;20467;-76
2023/08/09 07:42:37;;;;;;;0.60;0.10;;;16.50;1.00;;;;;;4949782;28;20463;-76
2023/08/09 07:45:07;;;;;;;0.60;0.10;;;16.40;1.00;;;;;;4957571;28;20478;-77
2023/08/09 07:47:35;;;;;;;0.60;0.20;;;16.60;1.00;;;;;;4969630;28;20453;-77
2023/08/09 07:50:05;;;;;;;0.60;0.10;;;16.60;1.00;;;;;;4956041;28;21018;-76
2023/08/09 07:52:33;;;;;;;0.60;0.10;;;16.60;99.90;;;;;;4956769;28;20498;-75
2023/08/09 07:55:01;;;;;;;0.60;0.10;;;16.60;99.90;;;;;;4953884;28;20558;-76
2023/08/09 07:57:29;;;;;;;0.60;0.10;;;16.70;99.90;;;;;;4956634;28;20447;-77
2023/08/09 07:59:56;;;;;;;0.60;0.10;;;16.70;99.90;;;;;;4956317;28;20517;-76
2023/08/09 08:02:33;;;;;;;0.60;0.10;;;16.80;99.90;;;;;;4954987;28;20491;-74
2023/08/09 08:05:01;;;;;;;0.60;0.10;;;16.80;99.90;;;;;;4954729;28;20529;-74
2023/08/09 08:07:29;;;;;;;0.60;0.10;;;16.80;99.90;;;;;;4954235;28;20469;-75
2023/08/09 08:09:57;;;;;;;0.60;0.13;;;16.70;99.90;;;;;;4956136;28;20475;-75
2023/08/09 08:12:26;;;;;;;0.60;0.10;;;16.70;99.90;;;;;;4956090;28;20497;-74
2023/08/09 08:14:54;;;;;;;0.60;0.13;;;16.70;99.90;;;;;;4953737;28;21009;-74
2023/08/09 08:17:22;;;;;;;0.60;0.10;;;16.70;99.90;;;;;;4955879;28;20824;-75
2023/08/09 08:19:52;;;;;;;0.60;0.20;;;16.60;99.90;;;;;;4956096;28;20880;-76
2023/08/09 08:22:25;;;;;;;0.60;0.10;;;16.60;99.90;;;;;;4956271;28;20458;-75
2023/08/09 08:24:53;;;;;;;0.60;0.10;;;16.60;99.90;;;;;;4958161;28;20486;-75
2023/08/09 08:27:21;;;;;;;0.60;0.10;;;16.60;99.90;;;;;;4956843;28;20454;-74
2023/08/09 08:29:49;;;;;;;0.60;0.20;;;16.60;99.90;;;;;;4957186;28;20514;-74
2023/08/09 08:32:17;;;;;;;0.60;0.13;;;16.70;99.90;;;;;;4958149;28;20578;-75
2023/08/09 08:34:45;;;;;;;0.60;0.10;;;16.80;99.90;;;;;;4952450;28;20495;-75
2023/08/09 08:37:14;;;;;;;0.60;0.10;;;16.80;99.90;;;;;;4949974;28;20545;-75
2023/08/09 08:39:44;;;;;;;0.60;0.10;;;16.80;99.90;;;;;;4963981;28;20469;-76
2023/08/09 08:42:12;;;;;;;0.60;0.10;;;16.90;99.90;;;;;;4965957;28;20538;-75
2023/08/09 08:44:40;;;;;;;0.60;0.10;;;16.90;99.90;;;;;;4956510;28;20466;-75
2023/08/09 08:47:08;;;;;;;0.60;0.10;;;16.90;99.90;;;;;;4950866;28;20570;-74
2023/08/09 08:49:43;;;;;;;0.60;0.10;;;16.90;99.90;;;;;;4954622;28;20556;-74
2023/08/09 08:52:14;;;;;;;0.60;0.10;;;17.00;99.90;;;;;;4956373;28;20474;-75
2023/08/09 08:54:44;;;;;;;0.60;0.10;;;17.10;99.90;;;;;;4972682;28;20485;-75
2023/08/09 08:57:12;;;;;;;0.60;0.10;;;17.20;99.90;;;;;;4974017;28;20818;-75
2023/08/09 08:59:40;;;;;;;0.60;0.10;;;17.20;99.90;;;;;;4974923;28;20541;-75
2023/08/09 09:02:08;;;;;;;0.60;0.10;;;17.30;99.90;;;;;;4973693;28;20477;-75
2023/08/09 09:04:38;;;;;;;0.60;0.10;;;17.40;99.90;;;;;;4974371;28;20473;-75
2023/08/09 09:07:07;;;;;;;0.60;0.10;;;17.40;99.90;;;;;;4974145;28;20484;-75
2023/08/09 09:09:56;;;;;;;0.60;0.20;;;17.40;99.90;;;;;;4975496;28;20950;-75
2023/08/09 09:12:25;;;;;;;0.60;0.20;;;17.60;99.90;;;;;;4977129;28;20894;-75
2023/08/09 09:14:53;;;;;;;0.60;0.20;;;17.70;99.90;;;;;;4978859;28;20521;-75
2023/08/09 09:17:21;;;;;;;0.60;0.20;;;17.80;99.90;;;;;;4979709;28;20442;-76
2023/08/09 09:19:51;;;;;;;0.60;0.10;;;17.90;99.90;;;;;;4979707;28;20524;-76
2023/08/09 09:22:28;;;;;;;0.60;0.10;;;18.10;99.90;;;;;;4969570;28;21029;-76
2023/08/09 09:24:59;;;;;;;0.60;0.10;;;18.10;99.90;;;;;;4948356;28;20445;-75
2023/08/09 09:27:27;;;;;;;0.60;0.10;;;18.10;99.90;;;;;;4955147;28;20525;-75
2023/08/09 09:29:56;;;;;;;0.60;0.20;;;18.20;99.90;;;;;;4955510;28;20454;-75
2023/08/09 09:32:23;;;;;;;0.60;0.10;;;18.20;99.90;;;;;;4943985;28;20488;-75
2023/08/09 09:34:51;;;;;;;0.60;0.10;;;18.10;99.90;;;;;;4952073;28;20517;-75
2023/08/09 09:37:25;;;;;;;0.60;0.10;;;18.00;99.90;;;;;;4953500;28;20562;-75
2023/08/09 09:39:53;;;;;;;0.60;0.10;;;18.00;99.90;;;;;;4948039;29;20442;-76
2023/08/09 09:42:35;;;;;;;0.60;0.10;;;18.10;99.90;;;;;;4949816;29;20487;-75
2023/08/09 09:45:08;;;;;;;0.60;0.10;;;18.00;99.90;;;;;;4955103;28;20526;-75
2023/08/09 09:47:39;;;;;;;0.60;0.10;;;18.10;99.90;;;;;;4955067;29;20486;-76
2023/08/09 09:50:09;;;;;;;0.60;0.10;;;18.20;99.90;;;;;;4955565;29;20446;-76
2023/08/09 09:52:37;;;;;;;0.60;0.10;;;18.30;99.90;;;;;;4955107;29;20557;-75
2023/08/09 09:55:07;;;;;;;0.60;0.10;;;18.40;99.90;;;;;;4954447;29;20533;-75
2023/08/09 09:57:36;;;;;;;0.60;0.10;;;18.40;99.90;;;;;;4954925;29;20805;-75
2023/08/09 10:00:10;;;;;;;0.60;0.10;;;18.50;99.90;;;;;;4953114;28;20870;-75
2023/08/09 10:02:46;;;;;;;0.60;0.10;;;18.60;99.90;;;;;;4953546;28;20478;-75
2023/08/09 10:05:17;;;;;;;0.60;0.10;;;18.70;99.90;;;;;;4954046;28;20453;-75
2023/08/09 10:07:46;;;;;;;0.60;0.10;;;18.80;99.90;;;;;;4953489;28;21239;-76
2023/08/09 10:10:20;;;;;;;0.60;0.10;;;18.90;99.90;;;;;;4953806;28;20443;-76
2023/08/09 10:12:53;;;;;;;0.60;0.20;;;19.00;99.90;;;;;;4954357;28;20445;-76
2023/08/09 10:15:29;;;;;;;0.60;0.10;;;19.00;99.90;;;;;;4954069;28;20517;-76
2023/08/09 10:18:02;;;;;;;0.60;0.10;;;19.00;99.90;;;;;;4955804;28;20514;-76
2023/08/09 10:20:32;;;;;;;0.70;0.20;;;19.00;99.90;;;;;;4955318;28;20953;-76
2023/08/09 10:23:00;;;;;;;0.60;0.10;;;;;;;;;;4954518;28;20450;-75
2023/08/09 10:25:46;;;;;;;0.60;0.10;;;19.10;99.90;;;;;;4954187;28;20471;-75
2023/08/09 10:28:15;;;;;;;0.60;0.10;;;19.30;99.90;;;;;;4954487;28;20805;-76
2023/08/09 10:30:46;;;;;;;0.60;0.10;;;19.30;99.90;;;;;;4934639;29;21121;-75
2023/08/09 10:33:18;;;;;;;0.60;0.10;;;19.30;99.90;;;;;;4935149;29;20855;-75
2023/08/09 10:35:49;;;;;;;0.60;0.17;;;19.20;99.90;;;;;;4934990;29;20945;-75
2023/08/09 10:38:19;;;;;;;0.60;0.10;;;19.20;99.90;;;;;;4934597;29;20452;-75
2023/08/09 10:40:52;;;;;;;0.60;0.20;;;19.20;99.90;;;;;;4934070;29;20507;-74
2023/08/09 10:43:22;;;;;;;0.60;0.10;;;19.30;99.90;;;;;;4934776;29;20455;-75
2023/08/09 10:45:53;;;;;;;0.60;0.10;;;19.30;99.90;;;;;;4935484;29;20440;-72
2023/08/09 10:48:23;;;;;;;0.60;0.17;;;19.50;99.90;;;;;;4934932;29;20443;-72
2023/08/09 10:51:16;;;;;;;0.60;0.10;;;19.70;99.90;;;;;;4935468;29;20525;-68
2023/08/09 10:53:58;;;;;;;0.60;0.20;;;19.80;99.90;;;;;;4951496;28;20480;-75
2023/08/09 10:56:31;;;;;;;0.60;0.10;;;19.90;99.90;;;;;;4951578;28;20482;-74
2023/08/09 10:59:08;;;;;;;0.70;0.23;;;20.10;99.90;;;;;;4954202;28;20964;-73
2023/08/09 11:01:37;;;;;;;0.60;0.10;;;20.20;99.90;;;;;;4953563;28;20541;-74
2023/08/09 11:04:07;;;;;;;0.60;0.10;;;20.30;99.90;;;;;;4953647;28;20547;-74
2023/08/09 11:06:39;;;;;;;0.60;0.10;;;20.40;99.90;;;;;;4948715;28;20490;-74
2023/08/09 11:09:09;;;;;;;0.60;0.10;;;20.50;99.90;;;;;;4951984;28;20945;-75
2023/08/09 11:11:38;;;;;;;0.60;0.10;;;20.50;99.90;;;;;;4953216;28;20490;-76
2023/08/09 11:14:08;;;;;;;0.60;0.10;;;20.60;99.90;;;;;;4951946;28;20896;-74
2023/08/09 11:16:36;;;;;;;0.60;0.10;;;20.70;99.90;;;;;;4952964;28;20885;-76
2023/08/09 11:19:06;;;;;;;0.60;0.10;;;20.70;99.90;;;;;;4953738;28;20447;-76
2023/08/09 11:21:48;;;;;;;0.60;0.10;;;20.70;99.90;;;;;;4953041;28;20466;-76
2023/08/09 11:24:17;;;;;;;0.60;0.10;;;20.70;99.90;;;;;;4948090;28;20506;-73
2023/08/09 11:26:48;;;;;;;0.60;0.20;;;20.80;99.90;;;;;;4952483;28;20507;-73
2023/08/09 11:29:19;;;;;;;0.60;0.10;;;20.70;99.90;;;;;;4953100;28;20501;-72
2023/08/09 11:31:49;;;;;;;0.60;0.10;;;20.60;99.90;;;;;;4953198;28;20467;-73
2023/08/09 11:34:19;;;;;;;0.60;0.10;;;20.60;99.90;;;;;;4948421;28;20475;-74
2023/08/09 11:36:48;;;;;;;0.60;0.10;;;20.60;99.70;;;;;;4948391;28;20613;-75
2023/08/09 11:39:17;;;;;;;0.60;0.20;;;20.60;99.90;;;;;;4953810;28;20450;-74
2023/08/09 11:41:53;;;;;;;0.60;0.10;;;20.60;99.90;;;;;;4951332;28;20572;-77
2023/08/09 11:44:26;;;;;;;0.60;0.10;;;20.70;99.90;;;;;;4949723;28;20463;-74
2023/08/09 11:46:55;;;;;;;0.60;0.10;;;20.70;98.10;;;;;;4952951;29;21241;-76
2023/08/09 11:49:26;;;;;;;0.60;0.20;;;20.70;96.50;;;;;;4953323;28;20485;-76
2023/08/09 11:51:54;;;;;;;0.60;0.10;;;20.70;96.00;;;;;;4953524;28;20475;-72
2023/08/09 11:54:23;;;;;;;0.60;0.10;;;20.60;93.40;;;;;;4954505;28;20468;-72
2023/08/09 11:56:51;;;;;;;0.60;0.20;;;;;;;;;;4954968;28;20970;-70
2023/08/09 11:59:21;;;;;;;0.60;0.20;;;20.60;95.50;;;;;;4957123;28;20936;-72
2023/08/09 12:01:55;;;;;;;0.60;0.10;;;20.70;97.10;;;;;;4957017;28;20475;-72
2023/08/09 12:04:25;;;;;;;1.07;0.20;;;20.80;97.50;;;;;;4956952;28;20460;-73
2023/08/09 12:06:55;;;;;;;0.60;0.10;;;20.90;95.40;;;;;;4953243;28;20825;-74
2023/08/09 12:09:30;;;;;;;0.60;0.20;;;21.10;94.30;;;;;;4952988;28;20443;-73
2023/08/09 12:12:06;;;;;;;0.60;0.10;;;21.10;91.30;;;;;;4953336;28;20467;-75
2023/08/09 12:14:36;;;;;;;0.60;0.10;;;21.10;88.20;;;;;;4949645;28;20491;-77
2023/08/09 12:17:06;;;;;;;0.60;0.10;;;21.20;84.40;;;;;;4955914;28;20810;-75
2023/08/09 12:19:35;;;;;;;0.60;0.20;;;;;;;;;;4957977;28;20479;-73
2023/08/09 12:22:04;;;;;;;0.60;0.20;;;21.10;68.80;;;;;;4957974;28;20523;-77
2023/08/09 12:24:32;;;;;;;0.60;0.10;;;21.10;67.90;;;;;;4959055;28;20451;-76
2023/08/09 12:27:01;;;;;;;0.60;0.10;;;21.20;66.30;;;;;;4950053;28;20472;-75
2023/08/09 12:29:28;;;;;;;0.60;0.10;;;21.20;68.40;;;;;;4951825;28;20483;-73
2023/08/09 12:31:58;;;;;;;0.60;0.10;;;16.50;62.20;;;;;;4954959;28;20462;-74
2023/08/09 12:34:29;;;;;;;0.60;0.20;;;21.10;70.20;;;;;;4962678;28;20455;-78
2023/08/09 12:36:57;;;;;;;0.60;0.10;;;21.10;72.10;;;;;;4961022;28;20539;-73
2023/08/09 12:39:26;;;;;;;0.60;0.10;;;21.20;71.00;;;;;;4954301;28;20474;-73
2023/08/09 12:41:54;;;;;;;0.60;0.10;;;;;;;;;;4953792;28;20512;-73
2023/08/09 12:44:22;;;;;;;0.60;0.10;;;21.30;63.30;;;;;;4956482;28;20957;-75
2023/08/09 12:46:52;;;;;;;0.60;0.20;;;21.30;63.40;;;;;;4954798;28;20453;-74
2023/08/09 12:49:20;;;;;;;0.70;0.20;;;;;;;;;;4951656;28;20489;-75
2023/08/09 12:51:50;;;;;;;0.60;0.10;;;;;;;;;;4953456;28;20483;-74
2023/08/09 12:54:18;;;;;;;0.60;0.10;;;;;;;;;;4954153;28;20877;-75
2023/08/09 12:56:46;;;;;;;0.60;0.20;;;21.30;60.80;;;;;;4957271;28;20503;-74
2023/08/09 12:59:14;;;;;;;0.60;0.10;;;21.30;63.00;;;;;;4954405;28;20494;-75
2023/08/09 13:01:43;;;;;;;0.60;0.10;;;;;;;;;;4953897;28;20468;-76
2023/08/09 13:04:12;;;;;;;0.60;0.10;;;21.40;66.40;;;;;;4953297;28;20485;-75
2023/08/09 13:06:40;;;;;;;0.60;0.10;;;21.30;65.80;;;;;;4953426;28;20960;-73
2023/08/09 13:09:09;;;;;;;0.60;0.10;;;21.40;60.90;;;;;;4954387;28;20548;-73
2023/08/09 13:11:37;;;;;;;0.60;0.10;;;21.20;60.80;;;;;;4954203;28;20527;-75
2023/08/09 13:14:05;;;;;;;0.60;0.10;;;21.10;62.30;;;;;;4954993;28;20444;-74
2023/08/09 13:16:33;;;;;;;0.60;0.20;;;21.20;60.60;;;;;;4948012;28;20449;-73
2023/08/09 13:19:01;;;;;;;0.60;0.10;;;21.10;60.40;;;;;;4957112;28;20444;-73
2023/08/09 13:21:29;;;;;;;0.60;0.20;;;;;;;;;;4954850;28;20472;-73
2023/08/09 13:23:58;;;;;;;0.60;0.20;;;;;;;;;;4955561;28;20822;-74
2023/08/09 13:26:27;;;;;;;0.60;0.10;;;21.10;62.70;;;;;;4955069;28;20799;-75
2023/08/09 13:28:55;;;;;;;0.60;0.10;;;21.10;60.70;;;;;;4955515;28;20579;-73
2023/08/09 13:31:23;;;;;;;0.60;0.10;;;;;;;;;;4957049;28;20472;-73
2023/08/09 13:33:51;;;;;;;0.60;0.20;;;21.10;54.40;;;;;;4952813;28;20464;-74
2023/08/09 13:36:19;;;;;;;0.70;0.53;;;;;;;;;;4954006;28;20453;-75
2023/08/09 13:38:48;;;;;;;0.60;0.10;;;;;;;;;;4939125;29;20937;-74
2023/08/09 13:41:16;;;;;;;0.60;0.10;;;21.10;58.10;;;;;;4953987;28;20500;-73
2023/08/09 13:43:45;;;;;;;0.60;0.10;;;21.10;61.30;;;;;;4954226;28;20441;-74
2023/08/09 13:46:13;;;;;;;0.60;0.10;;;;;;;;;;4954196;28;20487;-77
2023/08/09 13:48:41;;;;;;;0.60;0.10;;;21.20;65.20;;;;;;4953817;28;21113;-74
2023/08/09 13:51:09;;;;;;;0.60;0.10;;;21.30;64.10;;;;;;4954722;28;20487;-75
2023/08/09 13:53:37;;;;;;;0.60;0.17;;;21.40;57.40;;;;;;4955629;28;20491;-77
2023/08/09 13:56:05;;;;;;;0.60;0.10;;;21.20;49.70;;;;;;4955631;28;20870;-76
2023/08/09 13:58:33;;;;;;;0.60;0.10;;;21.10;52.20;;;;;;4954285;28;20502;-74
2023/08/09 14:01:02;;;;;;;0.60;0.10;;;21.20;53.40;;;;;;4953993;28;20901;-73
2023/08/09 14:03:32;;;;;;;0.60;0.10;;;21.20;49.00;;;;;;4953940;28;20444;-74
2023/08/09 14:06:01;;;;;;;0.60;0.10;;;21.20;36.50;;;;;;4953269;28;20544;-74
2023/08/09 14:08:29;;;;;;;15.07;8.33;;;;;;;;;;4952888;28;20479;-74
2023/08/09 14:10:57;;;;;;;0.60;0.10;;;21.20;29.20;;;;;;4953852;28;20535;-73
2023/08/09 14:13:25;;;;;;;0.60;0.20;;;21.20;23.50;;;;;;4954092;28;20997;-72
2023/08/09 14:15:56;;;;;;;0.70;0.60;;;;;;;;;;4947633;28;20468;-73
2023/08/09 14:18:26;;;;;;;0.60;0.10;;;21.10;19.20;;;;;;4953902;28;20543;-72
2023/08/09 14:20:54;;;;;;;0.60;0.20;;;21.10;18.60;;;;;;4953557;28;20841;-73
2023/08/09 14:23:22;;;;;;;0.60;0.20;;;21.20;18.80;;;;;;4942640;28;20444;-72
2023/08/09 14:25:50;;;;;;;0.60;0.10;;;21.20;17.80;;;;;;4953558;28;20527;-74
2023/08/09 14:28:20;;;;;;;0.60;0.10;;;21.20;18.40;;;;;;4953788;28;20485;-74
2023/08/09 14:30:48;;;;;;;0.60;0.20;;;21.20;18.90;;;;;;4953504;28;20574;-74
2023/08/09 14:33:16;;;;;;;0.60;0.10;;;21.20;18.10;;;;;;4954032;28;20479;-73
2023/08/09 14:35:45;;;;;;;0.60;0.10;;;21.20;15.60;;;;;;4954483;28;20476;-75
2023/08/09 14:38:14;;;;;;;0.60;0.10;;;21.20;16.60;;;;;;4954285;28;20535;-73
2023/08/09 14:40:46;;;;;;;0.60;0.10;;;;;;;;;;4954174;28;20967;-72
2023/08/09 14:43:14;;;;;;;0.60;0.10;;;;;;;;;;4954096;28;20515;-76
2023/08/09 14:45:42;;;;;;;0.60;0.10;;;21.30;16.90;;;;;;4952667;28;20531;-73
2023/08/09 14:48:10;;;;;;;0.60;0.10;;;21.30;18.30;;;;;;4948911;28;20515;-74
2023/08/09 14:50:38;;;;;;;0.60;0.10;;;;;;;;;;4949163;28;20488;-73
2023/08/09 14:53:12;;;;;;;0.60;0.10;;;21.40;18.20;;;;;;4953316;28;20981;-76
2023/08/09 14:55:42;;;;;;;0.60;0.10;;;21.40;16.30;;;;;;4954098;28;20449;-75
2023/08/09 14:58:10;;;;;;;0.60;0.10;;;21.40;16.90;;;;;;4950486;28;20498;-73
2023/08/09 15:00:38;;;;;;;0.60;0.10;;;;;;;;;;4950481;28;20523;-73
2023/08/09 15:03:06;;;;;;;0.60;0.10;;;21.40;17.10;;;;;;4950100;28;20457;-74
2023/08/09 15:05:35;;;;;;;0.60;0.10;;;21.40;16.80;;;;;;4951886;28;20869;-74
2023/08/09 15:08:03;;;;;;;0.60;0.10;;;21.40;19.10;;;;;;4953237;28;20440;-74
2023/08/09 15:10:33;;;;;;;0.70;0.20;;;;;;;;;;4953217;28;20571;-74
2023/08/09 15:13:02;;;;;;;0.60;0.10;;;21.50;20.00;;;;;;4953521;28;20450;-74
2023/08/09 15:15:31;;;;;;;0.60;0.10;;;;;;;;;;4953467;28;20454;-74
2023/08/09 15:17:59;;;;;;;0.60;0.10;;;21.70;19.90;;;;;;4953366;28;20825;-73
2023/08/09 15:20:27;;;;;;;0.73;0.20;;;21.90;23.00;;;;;;4953123;28;20500;-73
2023/08/09 15:22:55;;;;;;;0.60;0.20;;;22.00;21.60;;;;;;4953564;28;20452;-73
2023/08/09 15:25:25;;;;;;;0.60;0.10;;;22.10;19.80;;;;;;4953318;28;20462;-75
2023/08/09 15:27:55;;;;;;;0.60;0.20;;;22.20;19.80;;;;;;4954088;28;20448;-74
2023/08/09 15:30:24;;;;;;;0.60;0.20;;;;;;;;;;4946698;28;20498;-75
2023/08/09 15:32:52;;;;;;;0.60;0.13;;;22.40;18.90;;;;;;4952716;28;20533;-74
2023/08/09 15:35:20;;;;;;;0.60;0.10;;;22.40;16.40;;;;;;4953397;28;20826;-74
2023/08/09 15:37:50;;;;;;;0.60;0.10;;;22.50;14.00;;;;;;4942077;28;20547;-74
2023/08/09 15:40:18;;;;;;;0.70;0.17;;;22.60;9.10;;;;;;4955511;28;20449;-75
2023/08/09 15:42:46;;;;;;;0.60;0.10;;;;;;;;;;4964614;28;20802;-74
2023/08/09 15:45:15;;;;;;;0.60;0.10;;;22.80;7.90;;;;;;4965152;28;20991;-74
2023/08/09 15:47:46;;;;;;;0.70;0.30;;;;;;;;;;4965683;28;20762;-75
2023/08/09 15:50:14;;;;;;;0.60;0.20;;;;;;;;;;4963410;28;20482;-74
2023/08/09 15:52:43;;;;;;;0.60;0.20;;;;;;;;;;4955068;28;20603;-75
2023/08/09 15:55:11;;;;;;;0.60;0.10;;;;;;;;;;4958982;28;20935;-75
2023/08/09 15:57:39;;;;;;;0.60;0.10;;;;;;;;;;4954404;28;20456;-75
2023/08/09 16:00:09;;;;;;;0.60;0.20;;;22.50;1.00;;;;;;4954118;28;20441;-75
2023/08/09 16:02:38;;;;;;;0.60;0.10;;;22.40;1.00;;;;;;4956013;28;20485;-74
2023/08/09 16:05:09;;;;;;;0.60;0.10;;;22.40;1.00;;;;;;4955867;28;20445;-74
2023/08/09 16:07:40;;;;;;;0.60;0.10;;;22.30;1.00;;;;;;4961494;28;20467;-74
2023/08/09 16:10:09;;;;;;;0.60;0.20;;;22.20;1.00;;;;;;4966425;28;20741;-74
2023/08/09 16:12:38;;;;;;;0.60;0.17;;;;;;;;;;4960374;28;20794;-75
2023/08/09 16:15:07;;;;;;;0.60;0.20;;;22.10;1.00;;;;;;4959677;28;20483;-75
2023/08/09 16:17:35;;;;;;;0.60;0.10;;;;;;;;;;4957235;28;20959;-73
2023/08/09 16:20:05;;;;;;;1.43;1.27;;;22.00;1.00;;;;;;4961382;28;20474;-74
2023/08/09 16:22:34;;;;;;;0.60;0.10;;;;;;;;;;4955363;28;20464;-74
2023/08/09 16:25:02;;;;;;;0.60;0.10;;;21.90;1.00;;;;;;4954816;28;20963;-75
2023/08/09 16:27:32;;;;;;;0.60;0.10;;;22.00;1.00;;;;;;4955235;28;20453;-75
2023/08/09 16:30:00;;;;;;;0.60;0.20;;;;;;;;;;4954963;28;20484;-73
2023/08/09 16:32:29;;;;;;;0.60;0.10;;;;;;;;;;4955238;28;20981;-74
2023/08/09 16:34:57;;;;;;;0.60;0.10;;;22.10;1.00;;;;;;4954604;28;20838;-75
2023/08/09 16:37:28;;;;;;;0.60;0.10;;;22.20;1.00;;;;;;4956267;28;20510;-75
2023/08/09 16:39:57;;;;;;;0.60;0.10;;;;;;;;;;4956886;28;20969;-74
2023/08/09 16:42:25;;;;;;;0.60;0.10;;;;;;;;;;4954969;28;20465;-71
2023/08/09 16:44:53;;;;;;;0.60;0.10;;;;;;;;;;4954129;28;20484;-74
2023/08/09 16:47:21;;;;;;;0.60;0.20;;;22.00;1.00;;;;;;4955971;28;20479;-74
2023/08/09 16:49:49;;;;;;;0.60;0.10;;;22.20;1.00;;;;;;4955315;28;20535;-74
2023/08/09 16:52:17;;;;;;;0.60;0.10;;;22.30;1.00;;;;;;4959053;28;20556;-75
2023/08/09 16:54:46;;;;;;;0.60;0.10;;;22.30;1.00;;;;;;4961268;28;20537;-75
2023/08/09 16:57:14;;;;;;;0.60;0.10;;;;;;;;;;4959075;28;20475;-74
2023/08/09 16:59:42;;;;;;;0.90;0.50;;;22.20;1.00;;;;;;4960446;28;20456;-73
2023/08/09 17:02:11;;;;;;;0.60;0.10;;;;;;;;;;4958233;28;20524;-73
2023/08/09 17:04:39;;;;;;;0.60;0.17;;;22.10;1.00;;;;;;4962880;28;20449;-74
2023/08/09 17:07:10;;;;;;;0.60;0.10;;;22.00;1.00;;;;;;4962901;28;20468;-73
2023/08/09 17:09:41;;;;;;;0.70;0.40;;;;;;;;;;4965821;28;20508;-73
2023/08/09 17:12:10;;;;;;;0.60;0.10;;;22.00;1.00;;;;;;4964764;28;20476;-72
2023/08/09 17:14:38;;;;;;;0.60;0.10;;;21.90;1.00;;;;;;4964213;28;21329;-73
2023/08/09 17:17:06;;;;;;;0.60;0.20;;;21.90;1.00;;;;;;4964002;28;20513;-72